createdAt,value
2018-12-05T17:26:35.247Z,55.20
2018-12-05T17:29:04.374Z,54.50
2018-12-05T17:31:32.495Z,54.80
2018-12-05T17:34:01.238Z,55.00
2018-12-05T17:36:29.478Z,55.20
2018-12-05T17:38:57.589Z,55.40
2018-12-05T17:41:26.403Z,54.90
2018-12-05T17:43:54.975Z,55.50
2018-12-05T17:46:23.775Z,55.30
2018-12-05T17:48:52.555Z,55.50
2018-12-05T17:51:21.252Z,55.80
2018-12-05T17:53:49.917Z,56.80
2018-12-05T17:56:18.615Z,56.30
2018-12-05T17:58:47.104Z,56.40
2018-12-05T18:01:15.805Z,56.70
2018-12-05T18:03:43.858Z,57.50
2018-12-05T18:06:11.987Z,57.20
2018-12-05T18:08:40.915Z,57.10
2018-12-05T18:11:09.733Z,57.10
2018-12-05T18:13:37.819Z,58.90
2018-12-05T18:16:05.975Z,57.30
2018-12-05T18:18:34.234Z,56.90
2018-12-05T18:21:02.438Z,57.70
2018-12-05T18:25:33.600Z,57.00
2018-12-05T18:33:35.421Z,27.60
2018-12-05T18:38:39.377Z,44.20
2018-12-05T18:43:41.631Z,60.20
2018-12-05T18:48:44.661Z,64.40
2018-12-05T18:51:15.838Z,65.50
2018-12-05T18:55:11.974Z,64.90
2018-12-05T18:57:43.034Z,65.80
2018-12-05T19:02:45.295Z,65.50
2018-12-05T19:07:47.223Z,65.40
2018-12-05T19:12:49.457Z,65.40
2018-12-05T19:17:52.741Z,65.20
2018-12-05T19:22:51.419Z,66.50
2018-12-05T19:27:50.374Z,66.50
2018-12-05T19:32:48.137Z,66.50
2018-12-05T19:37:46.027Z,66.80
2018-12-05T19:42:44.276Z,66.80
2018-12-05T19:47:42.304Z,66.80
2018-12-05T19:52:39.859Z,66.80
2018-12-05T19:57:37.974Z,67.10
2018-12-05T20:02:43.175Z,67.00
2018-12-05T20:07:42.878Z,66.90
2018-12-05T20:12:45.293Z,67.50
2018-12-05T20:17:48.769Z,67.40
2018-12-05T20:22:47.734Z,67.30
2018-12-05T20:25:18.696Z,67.60
2018-12-05T20:30:27.736Z,68.10
2018-12-05T20:37:29.427Z,68.20
2018-12-05T20:42:33.100Z,68.80
2018-12-05T20:47:43.219Z,68.70
2018-12-05T20:52:46.458Z,68.30
2018-12-05T20:57:44.094Z,68.20
2018-12-05T21:02:40.634Z,68.80
2018-12-05T21:07:43.215Z,68.80
2018-12-05T21:12:43.415Z,68.40
2018-12-05T21:17:42.524Z,68.30
2018-12-05T21:20:14.138Z,68.50
2018-12-05T21:25:15.088Z,68.80
2018-12-05T21:30:17.506Z,68.40
2018-12-05T21:35:15.227Z,68.10
2018-12-05T21:40:17.178Z,68.10
2018-12-05T21:45:20.565Z,68.40
2018-12-05T21:50:21.577Z,68.80
2018-12-05T21:55:19.253Z,69.30
2018-12-05T22:00:26.947Z,68.70
2018-12-05T22:02:58.266Z,68.60
2018-12-05T22:08:16.025Z,68.20
2018-12-05T22:13:14.706Z,67.50
2018-12-05T22:18:17.246Z,67.30
2018-12-05T22:23:16.227Z,66.80
2018-12-05T22:28:13.893Z,66.80
2018-12-05T22:33:11.594Z,65.50
2018-12-05T22:38:09.026Z,66.00
2018-12-05T22:43:06.782Z,66.80
2018-12-05T22:48:04.508Z,67.60
2018-12-05T22:53:03.586Z,67.80
2018-12-05T22:58:07.066Z,68.10
2018-12-05T23:03:13.946Z,67.60
2018-12-05T23:08:12.147Z,67.30
2018-12-05T23:13:09.565Z,66.80
2018-12-05T23:18:07.027Z,66.00
2018-12-05T23:23:03.946Z,66.50
2018-12-05T23:28:06.587Z,66.80
2018-12-05T23:33:05.987Z,67.00
2018-12-05T23:38:08.067Z,67.50
2018-12-05T23:43:05.766Z,67.80
2018-12-05T23:48:04.585Z,67.30
2018-12-05T23:53:07.837Z,66.60
2018-12-05T23:58:10.904Z,66.80
